Terminal Aerodrome Forecast
Issued by NWS

Home | Current Version | Previous Version | Text Only | Print | Product List | Glossary On
Versions: 1 2 3 4 5 6 7 8 9 10 11 12
000
FTUS45 KRIW 221121
TAFPNA
TAF
KPNA 221121Z 2212/2312 31007KT P6SM SKC
     FM221500 31014KT P6SM SKC
     FM222200 32018G28KT P6SM SKC
     FM230200 32015KT P6SM SKC
     FM230500 33009KT P6SM SKC
     FM230700 02007KT P6SM SKC
      AMD LTD TO CLD VIS AND WIND=

USA.gov is the U.S. government's official web portal to all federal, state and local government web resources and services.